Time;durP1;ratioP1;P1;durP2;ratioP2;P2;SDS_P1;SDS_P2;PMS_P1;PMS_P2;Temp;Humidity;BMP_temperature;BMP_pressure;BME280_temperature;BME280_humidity;BME280_pressure;Samples;Min_cycle;Max_cycle;Signal;HPM_P1;HPM_P2
2022/09/21 00:01:45;;;;;;;12.73;8.37;;;13.60;30.50;;;;;;4957240;28;20192;-93
2022/09/21 00:04:11;;;;;;;10.53;8.37;;;13.50;32.70;;;;;;4951345;29;20733;-94
2022/09/21 00:06:42;;;;;;;13.90;8.50;;;13.40;35.00;;;;;;4945874;28;20181;-94
2022/09/21 00:09:35;;;;;;;14.20;9.83;;;13.40;35.30;;;;;;4944944;28;20201;-94
2022/09/21 00:12:17;;;;;;;11.30;8.63;;;13.30;37.70;;;;;;4946154;28;20175;-93
2022/09/21 00:15:32;;;;;;;13.07;8.50;;;13.10;41.80;;;;;;4954555;28;20182;-93
2022/09/21 00:18:03;;;;;;;10.57;7.90;;;13.00;45.70;;;;;;4955010;28;20168;-93
2022/09/21 00:20:35;;;;;;;12.17;9.10;;;13.00;46.80;;;;;;4957333;28;20180;-94
2022/09/21 00:23:02;;;;;;;12.70;8.87;;;12.90;48.00;;;;;;4957165;28;20211;-93
2022/09/21 00:25:55;;;;;;;11.57;8.30;;;13.00;46.20;;;;;;4954326;28;20217;-94
2022/09/21 00:32:15;;;;;;;11.77;8.47;;;12.90;47.60;;;;;;4945703;29;20161;-94
2022/09/21 00:38:25;;;;;;;14.10;9.40;;;12.70;52.10;;;;;;4957310;28;20224;-94
2022/09/21 00:41:34;;;;;;;13.00;8.80;;;12.70;53.70;;;;;;4951184;29;20178;-93
2022/09/21 00:44:40;;;;;;;11.37;8.30;;;12.70;55.40;;;;;;4956093;29;20264;-94
2022/09/21 00:47:32;;;;;;;11.83;8.80;;;12.80;55.00;;;;;;4949458;29;20188;-95
2022/09/21 00:50:13;;;;;;;12.43;9.07;;;12.80;55.10;;;;;;4950468;29;20174;-93
2022/09/21 00:56:13;;;;;;;11.77;9.07;;;12.90;52.70;;;;;;4949230;29;20204;-94
2022/09/21 00:58:48;;;;;;;10.80;8.77;;;12.80;52.10;;;;;;4948510;29;20189;-93
2022/09/21 01:01:17;;;;;;;10.77;8.63;;;12.90;51.90;;;;;;4952300;29;20169;-93
2022/09/21 01:03:47;;;;;;;12.53;9.20;;;12.90;51.10;;;;;;4953719;28;20201;-94
2022/09/21 01:06:36;;;;;;;12.37;8.93;;;12.90;50.80;;;;;;4950311;29;20191;-94
2022/09/21 01:09:08;;;;;;;13.37;9.53;;;13.00;49.40;;;;;;4950307;28;20174;-94
2022/09/21 01:15:19;;;;;;;11.07;8.43;;;13.00;46.30;;;;;;4952956;29;20154;-94
2022/09/21 01:18:08;;;;;;;12.47;8.57;;;12.90;46.60;;;;;;4959927;28;20180;-95
2022/09/21 01:24:32;;;;;;;11.70;8.40;;;12.80;48.10;;;;;;4943249;29;20215;-94
2022/09/21 01:27:23;;;;;;;12.53;8.53;;;12.90;47.40;;;;;;4942039;29;20671;-93
2022/09/21 01:30:17;;;;;;;9.77;8.33;;;12.80;47.80;;;;;;4944814;29;20263;-94
2022/09/21 01:33:30;;;;;;;10.17;8.17;;;12.70;49.60;;;;;;4944867;28;20182;-94
2022/09/21 01:36:51;;;;;;;11.93;8.83;;;12.70;51.20;;;;;;4940176;29;20317;-94
2022/09/21 01:39:36;;;;;;;11.37;8.00;;;12.70;51.80;;;;;;4942201;28;20182;-94
2022/09/21 01:42:24;;;;;;;11.47;8.03;;;12.60;53.00;;;;;;4941577;29;20624;-94
2022/09/21 01:45:00;;;;;;;9.93;8.33;;;12.60;54.30;;;;;;4940724;28;20528;-94
2022/09/21 01:47:52;;;;;;;10.13;8.30;;;12.60;53.20;;;;;;4938652;28;20259;-94
2022/09/21 01:53:55;;;;;;;14.13;8.67;;;12.70;51.20;;;;;;4960186;28;20154;-94
2022/09/21 01:57:01;;;;;;;11.10;8.90;;;12.70;48.40;;;;;;4955690;28;20209;-92
2022/09/21 02:00:00;;;;;;;11.63;7.90;;;12.80;47.70;;;;;;4952089;28;20178;-94
2022/09/21 02:02:57;;;;;;;12.17;8.63;;;12.80;47.70;;;;;;4943142;28;20665;-94
2022/09/21 02:08:46;;;;;;;10.70;8.50;;;12.80;44.90;;;;;;4938105;29;20223;-93
2022/09/21 02:11:19;;;;;;;13.40;8.90;;;12.80;43.90;;;;;;4938028;29;20181;-94
2022/09/21 02:14:09;;;;;;;11.23;9.00;;;12.80;46.00;;;;;;4936505;28;20586;-94
2022/09/21 02:17:07;;;;;;;10.97;8.83;;;12.70;46.80;;;;;;4937509;28;20173;-94
2022/09/21 02:23:42;;;;;;;12.23;8.87;;;12.70;47.60;;;;;;4943618;29;20205;-94
2022/09/21 02:26:57;;;;;;;11.20;8.67;;;12.70;46.70;;;;;;4948876;29;20190;-94
2022/09/21 02:33:31;;;;;;;12.27;9.63;;;12.50;49.50;;;;;;4948441;29;20176;-94
2022/09/21 02:36:56;;;;;;;;;;;;;;;;;;;;;
2022/09/21 02:43:44;;;;;;;11.03;8.50;;;12.30;50.30;;;;;;4969816;28;20197;-93
2022/09/21 02:46:49;;;;;;;10.43;8.10;;;12.10;56.60;;;;;;4968516;28;20214;-94
2022/09/21 02:49:55;;;;;;;12.07;8.80;;;12.20;58.70;;;;;;4974301;28;20656;-94
2022/09/21 02:52:44;;;;;;;12.77;8.70;;;12.30;56.00;;;;;;4989667;28;20182;-94
2022/09/21 02:55:36;;;;;;;11.37;7.70;;;12.30;56.10;;;;;;4982572;28;20188;-94
2022/09/21 03:02:16;;;;;;;12.10;8.63;;;12.30;58.10;;;;;;4992804;28;20176;-94
2022/09/21 03:04:53;;;;;;;12.67;8.60;;;12.30;58.20;;;;;;4986368;28;20222;-93
2022/09/21 03:11:04;;;;;;;11.30;7.77;;;12.30;57.50;;;;;;4945339;29;20275;-94
2022/09/21 03:17:38;;;;;;;13.27;8.27;;;12.30;56.90;;;;;;4947135;29;20168;-91
2022/09/21 03:23:57;;;;;;;9.30;7.90;;;12.30;53.50;;;;;;4954270;28;20216;-93
2022/09/21 03:29:46;;;;;;;10.33;7.50;;;12.00;57.30;;;;;;4943390;29;20172;-93
2022/09/21 03:33:04;;;;;;;14.57;7.80;;;12.00;59.50;;;;;;4937544;28;20656;-94
2022/09/21 03:35:58;;;;;;;12.17;8.43;;;11.90;60.20;;;;;;4937556;29;20177;-94
2022/09/21 03:38:55;;;;;;;9.33;7.57;;;11.80;63.50;;;;;;4938011;28;20205;-93
2022/09/21 03:41:38;;;;;;;;;;;;;;;;;;;;;
2022/09/21 03:47:40;;;;;;;15.10;8.67;;;11.70;60.00;;;;;;4958709;28;20176;-92
2022/09/21 03:50:35;;;;;;;;;;;;;;;;;;;;;
2022/09/21 03:53:26;;;;;;;9.37;7.70;;;11.60;64.00;;;;;;4956545;28;20166;-93
2022/09/21 03:56:44;;;;;;;11.07;8.27;;;11.80;65.00;;;;;;4957160;28;20204;-93
2022/09/21 03:59:34;;;;;;;9.70;7.57;;;11.70;63.10;;;;;;4960693;28;20166;-93
2022/09/21 04:02:27;;;;;;;10.33;7.87;;;11.80;60.80;;;;;;4956296;28;20211;-94
2022/09/21 04:05:09;;;;;;;9.80;8.50;;;11.80;59.90;;;;;;4955822;28;20193;-93
2022/09/21 04:08:37;;;;;;;11.33;7.67;;;11.80;56.70;;;;;;4948247;28;20189;-94
2022/09/21 04:14:49;;;;;;;10.80;7.57;;;11.70;55.30;;;;;;4940202;29;20276;-94
2022/09/21 04:17:35;;;;;;;10.27;7.17;;;11.60;57.90;;;;;;4937811;29;20181;-94
2022/09/21 04:23:55;;;;;;;14.57;7.57;;;11.50;59.40;;;;;;4957950;29;20216;-93
2022/09/21 04:30:17;;;;;;;13.67;8.33;;;11.50;61.10;;;;;;4957155;29;20172;-93
2022/09/21 04:33:13;;;;;;;11.90;8.30;;;11.50;58.40;;;;;;4940870;29;20178;-94
2022/09/21 04:36:36;;;;;;;10.27;8.00;;;11.40;59.40;;;;;;4939044;29;20235;-94
2022/09/21 04:39:10;;;;;;;12.07;8.43;;;11.30;62.40;;;;;;4938738;29;20189;-94
2022/09/21 04:41:37;;;;;;;11.40;8.47;;;11.20;65.30;;;;;;4938969;28;20638;-94
2022/09/21 04:44:14;;;;;;;15.23;9.17;;;11.30;66.50;;;;;;4942401;29;20224;-93
2022/09/21 04:47:27;;;;;;;11.40;8.27;;;11.40;62.50;;;;;;4939359;28;20185;-93
2022/09/21 04:50:33;;;;;;;15.83;9.17;;;11.40;60.90;;;;;;4939860;29;20268;-94
2022/09/21 04:53:18;;;;;;;16.03;9.23;;;11.30;62.80;;;;;;4939316;29;20169;-94
2022/09/21 04:59:51;;;;;;;15.90;8.70;;;11.50;62.40;;;;;;4952397;29;20251;-93
2022/09/21 05:02:41;;;;;;;15.40;9.40;;;11.50;61.50;;;;;;4944045;29;20208;-93
2022/09/21 05:05:44;;;;;;;14.07;8.90;;;11.60;60.10;;;;;;4941803;28;20181;-94
2022/09/21 05:11:33;;;;;;;12.77;8.43;;;11.50;59.70;;;;;;4956770;28;20179;-94
2022/09/21 05:17:43;;;;;;;15.67;9.03;;;11.60;56.30;;;;;;4960073;28;20157;-93
2022/09/21 05:20:10;;;;;;;15.67;8.80;;;11.50;58.00;;;;;;4958923;28;20174;-94
2022/09/21 05:22:39;;;;;;;13.43;9.33;;;11.40;59.70;;;;;;4956163;28;20235;-94
2022/09/21 05:25:35;;;;;;;16.90;8.73;;;11.40;61.40;;;;;;4956561;28;20177;-92
2022/09/21 05:28:25;;;;;;;;;;;;;;;;;;;;;
2022/09/21 05:38:40;;;;;;;13.00;9.20;;;10.90;73.80;;;;;;4942610;29;20762;-95
2022/09/21 05:48:53;;;;;;;15.73;10.60;;;11.40;77.90;;;;;;5043435;28;20210;-93
2022/09/21 05:51:58;;;;;;;14.57;10.30;;;11.60;76.00;;;;;;5029580;28;20170;-94
2022/09/21 05:55:08;;;;;;;18.97;13.10;;;11.70;75.30;;;;;;5011421;28;20181;-92
2022/09/21 06:04:13;;;;;;;21.57;14.37;;;11.90;70.70;;;;;;5039185;28;20217;-91
2022/09/21 06:06:59;;;;;;;16.60;13.10;;;11.90;66.10;;;;;;5019325;28;20545;-87
2022/09/21 06:10:03;;;;;;;14.33;11.90;;;12.00;61.80;;;;;;5007269;28;20178;-89
2022/09/21 06:12:51;;;;;;;15.60;11.20;;;12.10;60.20;;;;;;5002931;28;20178;-90
2022/09/21 06:15:42;;;;;;;13.37;10.27;;;11.90;61.60;;;;;;4982547;28;20294;-89
2022/09/21 06:18:48;;;;;;;;;;;;;;;;;;;;;
2022/09/21 06:21:14;;;;;;;17.87;9.93;;;12.10;61.60;;;;;;4959314;28;20254;-93
2022/09/21 06:24:24;;;;;;;14.23;9.70;;;12.20;61.50;;;;;;4963327;28;20310;-89
2022/09/21 06:27:19;;;;;;;14.77;10.73;;;12.10;60.50;;;;;;4984642;28;20230;-90
2022/09/21 06:30:34;;;;;;;;;;;;;;;;;;;;;
2022/09/21 06:33:10;;;;;;;14.13;10.30;;;12.10;60.20;;;;;;4986364;28;20249;-90
2022/09/21 06:36:08;;;;;;;13.23;10.27;;;12.20;66.70;;;;;;4980384;28;20210;-91
2022/09/21 06:38:55;;;;;;;18.77;10.83;;;12.10;60.50;;;;;;5033626;28;20177;-91
2022/09/21 06:41:32;;;;;;;16.73;10.03;;;11.90;60.00;;;;;;5023097;28;20639;-90
2022/09/21 06:45:05;;;;;;;;;;;;;;;;;;;;;
2022/09/21 06:48:26;;;;;;;13.83;9.80;;;11.80;65.10;;;;;;5030701;28;20288;-90
2022/09/21 06:51:26;;;;;;;21.83;10.80;;;11.90;65.30;;;;;;5039241;28;20230;-91
2022/09/21 06:54:39;;;;;;;15.97;10.87;;;12.30;61.80;;;;;;5007168;28;20192;-91
2022/09/21 06:57:48;;;;;;;16.17;11.00;;;12.40;55.90;;;;;;5012471;28;20189;-92
2022/09/21 07:00:17;;;;;;;20.50;10.80;;;12.40;50.50;;;;;;5007533;28;20243;-93
2022/09/21 07:03:23;;;;;;;16.13;10.70;;;12.40;49.20;;;;;;5030724;28;20209;-91
2022/09/21 07:10:11;;;;;;;21.03;10.80;;;12.50;49.30;;;;;;5038704;28;20149;-90
2022/09/21 07:12:58;;;;;;;14.03;10.17;;;12.50;47.30;;;;;;5020901;28;20175;-90
2022/09/21 07:19:31;;;;;;;15.00;11.00;;;13.00;45.00;;;;;;5040569;28;20229;-90
2022/09/21 07:22:16;;;;;;;16.27;10.57;;;13.20;41.30;;;;;;5030795;28;20192;-90
2022/09/21 07:25:21;;;;;;;16.03;10.63;;;13.40;36.80;;;;;;5055237;28;20182;-90
2022/09/21 07:28:16;;;;;;;18.77;11.07;;;13.30;32.10;;;;;;5046185;28;20197;-90
2022/09/21 07:31:50;;;;;;;17.13;10.63;;;13.70;30.20;;;;;;5057093;28;20147;-90
2022/09/21 07:35:13;;;;;;;;;;;;;;;;;;;;;
2022/09/21 07:44:47;;;;;;;19.30;11.87;;;14.00;16.20;;;;;;4997242;28;20234;-89
2022/09/21 07:55:12;;;;;;;;;;;;;;;;;;;;;
2022/09/21 08:04:54;;;;;;;;;;;;;;;;;;;;;
2022/09/21 08:08:18;;;;;;;18.97;12.33;;;13.50;26.30;;;;;;4939440;29;20222;-91
2022/09/21 08:11:31;;;;;;;20.57;11.67;;;13.50;30.30;;;;;;4919027;29;20180;-92
2022/09/21 08:14:19;;;;;;;27.30;11.93;;;13.60;28.80;;;;;;4927963;29;20220;-91
2022/09/21 08:17:45;;;;;;;21.73;12.33;;;13.70;28.10;;;;;;4912219;29;20192;-91
2022/09/21 08:20:42;;;;;;;20.23;12.17;;;13.90;31.80;;;;;;4903300;29;20190;-92
2022/09/21 08:24:01;;;;;;;28.13;14.13;;;13.90;29.80;;;;;;4964777;28;20329;-91
2022/09/21 08:28:06;;;;;;;;;;;;;;;;;;;;;
2022/09/21 08:30:17;;;;;;;27.17;12.97;;;14.10;29.20;;;;;;4878421;29;20261;-92
2022/09/21 08:32:46;;;;;;;20.20;12.17;;;14.20;25.00;;;;;;4953657;29;20252;-93
2022/09/21 08:35:15;;;;;;;21.87;10.83;;;14.40;20.30;;;;;;4953214;28;20217;-87
2022/09/21 08:37:43;;;;;;;23.43;14.50;;;14.70;21.30;;;;;;4962229;28;20208;-87
2022/09/21 08:40:10;;;;;;;19.37;11.30;;;15.10;11.90;;;;;;4977272;28;20187;-88
2022/09/21 08:43:10;;;;;;;19.80;10.00;;;15.40;2.10;;;;;;4987191;28;20292;-87
2022/09/21 08:45:42;;;;;;;17.20;9.47;;;15.60;1.00;;;;;;4977165;28;20334;-87
2022/09/21 08:48:23;;;;;;;18.03;9.03;;;15.90;1.00;;;;;;4978671;28;20202;-87
2022/09/21 08:51:01;;;;;;;11.87;8.87;;;16.10;1.00;;;;;;4998444;28;20198;-87
2022/09/21 08:53:41;;;;;;;12.03;7.70;;;16.10;1.00;;;;;;5041396;28;20169;-90
2022/09/21 08:56:14;;;;;;;13.00;7.83;;;16.00;1.00;;;;;;5021985;28;20208;-89
2022/09/21 08:58:42;;;;;;;16.13;8.03;;;15.80;1.00;;;;;;5026154;28;20182;-89
2022/09/21 09:02:12;;;;;;;;;;;;;;;;;;;;;
2022/09/21 09:05:03;;;;;;;11.83;7.73;;;15.60;1.00;;;;;;5006206;28;20241;-89
2022/09/21 09:08:20;;;;;;;13.97;7.97;;;15.60;1.00;;;;;;5026048;28;20268;-86
2022/09/21 09:10:57;;;;;;;10.43;6.43;;;15.60;1.00;;;;;;5005204;28;20183;-89
2022/09/21 09:13:27;;;;;;;13.30;7.77;;;15.80;1.00;;;;;;4999049;28;20191;-89
2022/09/21 09:16:51;;;;;;;11.20;7.77;;;15.80;1.00;;;;;;5014194;28;20163;-88
2022/09/21 09:20:00;;;;;;;10.47;4.93;;;16.00;1.00;;;;;;4996452;28;20218;-88
2022/09/21 09:22:38;;;;;;;12.30;4.30;;;16.10;1.00;;;;;;4992622;28;20208;-88
2022/09/21 09:25:23;;;;;;;6.90;4.40;;;16.30;1.00;;;;;;5013926;28;20185;-90
2022/09/21 09:28:16;;;;;;;8.40;4.40;;;16.20;1.00;;;;;;5011243;28;20179;-91
2022/09/21 09:30:47;;;;;;;7.70;4.00;;;16.00;1.00;;;;;;5032102;28;20171;-91
2022/09/21 09:33:19;;;;;;;7.77;2.97;;;16.20;1.00;;;;;;5029543;28;20202;-90
2022/09/21 09:35:57;;;;;;;4.60;2.23;;;16.40;1.00;;;;;;5028985;28;20190;-91
2022/09/21 09:38:59;;;;;;;6.63;2.67;;;16.40;1.00;;;;;;5024780;28;20182;-91
2022/09/21 09:42:18;;;;;;;8.23;2.87;;;16.50;1.00;;;;;;5006656;28;20187;-91
2022/09/21 09:48:16;;;;;;;6.30;3.20;;;16.60;1.00;;;;;;5025827;28;20193;-91
2022/09/21 09:50:55;;;;;;;7.07;3.27;;;16.50;1.00;;;;;;5023763;28;20273;-92
2022/09/21 09:53:28;;;;;;;9.43;4.43;;;16.40;1.00;;;;;;5003699;28;20320;-91
2022/09/21 09:56:09;;;;;;;8.93;4.10;;;16.50;1.00;;;;;;4989794;28;20234;-91
2022/09/21 09:58:51;;;;;;;7.97;4.07;;;16.60;1.00;;;;;;5016932;28;20206;-91
2022/09/21 10:01:46;;;;;;;5.53;2.40;;;16.70;1.00;;;;;;5003476;28;20557;-90
2022/09/21 10:04:27;;;;;;;8.27;3.07;;;16.80;1.00;;;;;;5024312;28;20202;-89
2022/09/21 10:07:37;;;;;;;6.83;3.37;;;16.80;1.00;;;;;;5026255;28;20177;-91
2022/09/21 10:10:27;;;;;;;5.67;3.10;;;16.70;1.00;;;;;;5003786;28;20175;-90
2022/09/21 10:13:04;;;;;;;5.90;2.40;;;16.50;1.00;;;;;;5002916;28;20178;-90
2022/09/21 10:15:54;;;;;;;9.40;2.30;;;16.50;1.00;;;;;;5017980;28;20242;-91
2022/09/21 10:18:44;;;;;;;7.40;2.23;;;16.60;1.00;;;;;;5023167;28;20250;-91
2022/09/21 10:21:38;;;;;;;4.77;2.27;;;16.70;1.00;;;;;;5010001;28;20200;-91
2022/09/21 10:24:25;;;;;;;7.40;2.33;;;16.90;1.00;;;;;;5033844;28;20212;-89
2022/09/21 10:30:37;;;;;;;5.57;1.67;;;16.70;1.00;;;;;;5024331;28;20161;-88
2022/09/21 10:36:33;;;;;;;4.43;1.93;;;16.60;1.00;;;;;;5021436;28;20193;-87
2022/09/21 10:39:26;;;;;;;8.47;1.60;;;16.90;1.00;;;;;;5027848;28;20162;-88
2022/09/21 10:41:55;;;;;;;3.73;1.47;;;16.90;1.00;;;;;;5020738;28;20163;-88
2022/09/21 10:45:04;;;;;;;4.07;1.67;;;16.80;1.00;;;;;;5010344;28;20245;-88
2022/09/21 10:47:40;;;;;;;5.47;1.93;;;16.80;1.00;;;;;;5028392;28;20178;-88
2022/09/21 10:50:39;;;;;;;4.00;1.60;;;16.60;1.00;;;;;;5037892;28;20200;-89
2022/09/21 10:53:43;;;;;;;5.40;1.60;;;16.60;1.00;;;;;;5006276;28;20193;-89
2022/09/21 10:56:31;;;;;;;5.87;1.80;;;16.50;1.00;;;;;;5021631;28;20185;-89
2022/09/21 10:59:37;;;;;;;4.40;1.60;;;16.50;1.00;;;;;;5018702;28;20269;-89
2022/09/21 11:02:32;;;;;;;5.17;1.70;;;16.60;1.00;;;;;;4959167;28;20241;-87
2022/09/21 11:05:25;;;;;;;6.77;1.83;;;16.70;1.00;;;;;;5004011;28;20179;-87
2022/09/21 11:07:58;;;;;;;3.80;1.70;;;16.90;1.00;;;;;;5028022;28;20202;-89
2022/09/21 11:11:05;;;;;;;4.53;1.90;;;17.00;1.00;;;;;;5028032;28;20249;-88
2022/09/21 11:13:53;;;;;;;5.10;1.40;;;16.80;1.00;;;;;;4982376;28;20197;-87
2022/09/21 11:16:40;;;;;;;4.67;1.60;;;16.90;1.00;;;;;;5036659;28;20178;-87
2022/09/21 11:19:49;;;;;;;3.43;1.50;;;17.00;1.00;;;;;;5033574;28;20202;-88
2022/09/21 11:22:39;;;;;;;4.57;1.60;;;17.10;1.00;;;;;;5011917;28;20196;-86
2022/09/21 11:32:18;;;;;;;5.23;1.67;;;17.40;1.00;;;;;;5025997;28;20241;-87
2022/09/21 11:38:38;;;;;;;4.17;1.87;;;17.50;99.90;;;;;;5026068;28;20681;-86
2022/09/21 11:41:20;;;;;;;4.17;1.40;;;17.40;99.90;;;;;;5023448;28;20244;-87
2022/09/21 11:44:05;;;;;;;4.37;1.40;;;17.30;99.90;;;;;;5037291;28;20211;-86
2022/09/21 11:46:58;;;;;;;4.93;2.37;;;17.30;99.90;;;;;;5052726;28;20189;-86
2022/09/21 11:49:53;;;;;;;5.53;1.37;;;17.60;99.90;;;;;;5031748;28;20214;-88
2022/09/21 11:53:06;;;;;;;5.63;1.70;;;17.70;99.90;;;;;;5025021;28;20231;-87
2022/09/21 11:55:56;;;;;;;5.13;1.37;;;17.70;99.90;;;;;;5025200;28;20510;-86
2022/09/21 11:59:07;;;;;;;2.70;1.20;;;17.50;99.90;;;;;;5029796;28;20206;-88
2022/09/21 12:02:07;;;;;;;2.67;1.00;;;17.20;99.90;;;;;;5043396;28;20152;-87
2022/09/21 12:05:22;;;;;;;3.70;1.40;;;17.10;99.90;;;;;;5030022;28;20248;-86
2022/09/21 12:08:35;;;;;;;5.93;1.40;;;17.10;99.90;;;;;;5038564;28;20178;-86
2022/09/21 12:11:02;;;;;;;3.63;1.57;;;17.40;99.90;;;;;;5057084;28;20237;-88
2022/09/21 12:14:07;;;;;;;2.23;0.90;;;17.50;61.40;;;;;;5039844;28;20176;-87
2022/09/21 12:17:15;;;;;;;4.83;1.20;;;17.70;1.00;;;;;;5056311;28;20211;-88
2022/09/21 12:23:20;;;;;;;11.20;4.67;;;17.80;1.00;;;;;;5037716;28;20221;-86
2022/09/21 12:25:53;;;;;;;4.00;1.57;;;17.90;1.00;;;;;;5020677;28;20187;-89
2022/09/21 12:28:44;;;;;;;4.63;1.40;;;18.10;1.00;;;;;;5035348;28;20179;-89
2022/09/21 12:31:20;;;;;;;4.27;1.47;;;18.30;1.00;;;;;;5009469;28;20203;-88
2022/09/21 12:34:25;;;;;;;2.70;1.17;;;18.40;1.00;;;;;;5045680;28;20630;-88
2022/09/21 12:37:43;;;;;;;4.40;1.27;;;18.40;1.00;;;;;;5038043;28;20212;-87
2022/09/21 12:40:30;;;;;;;5.07;1.30;;;18.20;1.00;;;;;;5030524;28;20173;-88
2022/09/21 12:43:37;;;;;;;7.23;1.80;;;18.30;1.00;;;;;;5030169;28;20545;-88
2022/09/21 12:46:54;;;;;;;5.30;1.20;;;18.40;1.00;;;;;;5037075;28;20718;-89
2022/09/21 12:49:29;;;;;;;4.47;1.43;;;18.60;99.90;;;;;;5040865;28;20150;-87
2022/09/21 12:52:00;;;;;;;5.40;1.37;;;18.80;99.90;;;;;;5039763;28;20190;-86
2022/09/21 12:55:03;;;;;;;5.60;1.30;;;18.70;11.70;;;;;;5040132;28;20176;-91
2022/09/21 12:57:47;;;;;;;4.00;1.43;;;18.30;99.90;;;;;;5041052;28;20662;-89
2022/09/21 13:00:19;;;;;;;3.80;1.37;;;18.10;1.00;;;;;;5038555;28;20265;-84
2022/09/21 13:03:20;;;;;;;4.43;1.40;;;18.10;99.90;;;;;;5034659;28;20277;-90
2022/09/21 13:06:05;;;;;;;2.93;1.20;;;18.00;1.00;;;;;;5018810;28;20197;-88
2022/09/21 13:08:47;;;;;;;3.07;1.27;;;18.10;1.00;;;;;;5032576;28;20237;-90
2022/09/21 13:11:20;;;;;;;4.70;1.53;;;18.30;99.90;;;;;;5031763;28;20239;-87
2022/09/21 13:14:02;;;;;;;4.37;1.73;;;18.20;99.90;;;;;;5039966;28;20174;-86
2022/09/21 13:16:38;;;;;;;4.97;1.27;;;18.10;99.90;;;;;;5056348;28;20170;-87
2022/09/21 13:19:19;;;;;;;3.30;1.40;;;18.00;1.00;;;;;;5032374;28;20182;-89
2022/09/21 13:22:23;;;;;;;5.27;1.30;;;18.10;99.90;;;;;;5026346;28;20256;-91
2022/09/21 13:25:05;;;;;;;4.57;1.30;;;18.00;99.90;;;;;;5042347;28;20205;-92
2022/09/21 13:28:06;;;;;;;6.23;1.50;;;18.00;99.90;;;;;;5024928;28;20177;-91
2022/09/21 13:30:37;;;;;;;8.10;1.60;;;18.40;99.90;;;;;;5024655;28;20170;-89
2022/09/21 13:33:22;;;;;;;10.00;2.80;;;18.10;1.00;;;;;;5024638;28;20158;-95
2022/09/21 13:36:01;;;;;;;7.37;2.57;;;18.00;56.00;;;;;;5027923;28;20189;-90
2022/09/21 13:38:53;;;;;;;4.97;1.60;;;18.00;1.00;;;;;;5028098;28;20167;-90
2022/09/21 13:41:26;;;;;;;14.37;3.80;;;17.90;15.10;;;;;;5027996;28;20182;-93
2022/09/21 13:43:54;;;;;;;4.70;1.40;;;18.20;1.00;;;;;;5025203;28;20315;-88
2022/09/21 13:46:35;;;;;;;5.77;1.83;;;18.40;1.00;;;;;;5040117;28;20224;-90
2022/09/21 13:49:10;;;;;;;6.60;2.00;;;18.30;1.00;;;;;;5021216;28;20191;-90
2022/09/21 13:52:11;;;;;;;4.60;1.43;;;18.30;1.00;;;;;;5040437;28;20193;-89
2022/09/21 13:54:44;;;;;;;5.73;1.57;;;18.10;1.00;;;;;;4947091;29;20638;-91
2022/09/21 13:57:26;;;;;;;3.97;1.53;;;17.90;1.00;;;;;;5013939;28;20185;-92
2022/09/21 14:00:11;;;;;;;4.83;1.47;;;17.90;1.00;;;;;;5026533;28;20170;-89
2022/09/21 14:02:43;;;;;;;2.43;1.10;;;18.10;99.90;;;;;;5037218;28;20210;-89
2022/09/21 14:05:42;;;;;;;4.13;1.23;;;18.10;1.00;;;;;;5033208;28;20178;-91
2022/09/21 14:08:13;;;;;;;3.13;1.30;;;18.50;21.50;;;;;;5016912;28;20191;-92
2022/09/21 14:10:50;;;;;;;3.67;1.20;;;18.70;1.00;;;;;;5014872;28;20184;-89
2022/09/21 14:13:51;;;;;;;6.37;1.57;;;18.70;1.00;;;;;;5011439;28;20577;-93
2022/09/21 14:16:40;;;;;;;6.03;1.50;;;18.90;1.00;;;;;;5017678;28;20160;-88
2022/09/21 14:19:29;;;;;;;4.30;1.17;;;18.90;1.00;;;;;;5031541;28;20195;-94
2022/09/21 14:22:11;;;;;;;3.97;1.40;;;18.80;1.00;;;;;;5008654;28;20187;-88
2022/09/21 14:28:33;;;;;;;3.87;1.47;;;18.50;1.00;;;;;;5036358;28;20182;-96
2022/09/21 14:31:28;;;;;;;4.07;1.50;;;18.80;1.00;;;;;;5034457;28;20159;-96
2022/09/21 14:34:34;;;;;;;5.80;1.57;;;19.30;1.00;;;;;;5000758;28;20177;-95
2022/09/21 14:37:12;;;;;;;4.03;1.53;;;19.30;99.90;;;;;;5014081;28;20235;-92
2022/09/21 14:40:08;;;;;;;4.47;1.40;;;19.20;99.90;;;;;;5003090;28;20186;-92
2022/09/21 14:43:21;;;;;;;5.80;1.40;;;19.40;99.90;;;;;;5015675;28;20199;-91
2022/09/21 14:46:34;;;;;;;7.10;1.53;;;19.60;99.90;;;;;;5015193;28;20174;-92
2022/09/21 14:49:59;;;;;;;8.57;3.17;;;19.80;1.00;;;;;;5025620;28;20166;-92
2022/09/21 14:52:58;;;;;;;4.13;1.40;;;19.80;99.90;;;;;;5036668;28;20187;-92
2022/09/21 14:55:53;;;;;;;3.27;1.33;;;19.90;1.00;;;;;;5015635;28;20181;-93
2022/09/21 15:12:30;;;;;;;4.13;1.70;;;20.00;99.90;;;;;;5027168;28;20257;-90
2022/09/21 15:15:36;;;;;;;5.73;1.37;;;20.30;1.00;;;;;;5026753;28;20185;-94
2022/09/21 15:18:39;;;;;;;6.93;2.13;;;20.30;1.00;;;;;;5016890;28;20200;-93
2022/09/21 15:21:56;;;;;;;5.47;1.60;;;20.40;1.00;;;;;;5021036;28;20173;-93
2022/09/21 15:29:01;;;;;;;2.73;1.30;;;20.60;1.00;;;;;;5037169;28;20177;-92
2022/09/21 15:31:44;;;;;;;5.47;1.63;;;20.80;1.00;;;;;;5036088;28;20174;-93
2022/09/21 15:34:50;;;;;;;3.87;1.10;;;21.00;99.90;;;;;;5010421;28;20164;-91
2022/09/21 15:37:59;;;;;;;4.43;1.40;;;21.60;1.00;;;;;;5101774;22;20209;-92
2022/09/21 15:41:01;;;;;;;3.70;1.13;;;22.50;99.90;;;;;;5074551;28;20199;-91
2022/09/21 15:44:04;;;;;;;4.83;1.43;;;23.20;1.00;;;;;;5059781;28;20212;-92
2022/09/21 15:46:50;;;;;;;2.33;1.00;;;23.30;12.60;;;;;;5067887;28;20176;-90
2022/09/21 15:49:50;;;;;;;3.83;1.53;;;23.10;1.00;;;;;;5095166;28;20190;-95
2022/09/21 15:52:39;;;;;;;5.83;1.70;;;22.80;1.00;;;;;;5064160;28;20168;-92
2022/09/21 15:55:18;;;;;;;4.37;1.63;;;22.80;1.00;;;;;;5073785;28;20250;-93
2022/09/21 15:57:55;;;;;;;5.00;1.70;;;23.60;1.00;;;;;;5060068;28;20183;-93
2022/09/21 16:01:03;;;;;;;3.03;1.40;;;23.50;1.00;;;;;;5085378;28;20185;-92
2022/09/21 16:04:10;;;;;;;4.77;1.57;;;22.30;1.00;;;;;;5053137;28;20285;-96
2022/09/21 16:07:41;;;;;;;4.57;1.60;;;21.10;1.00;;;;;;5051573;28;20206;-97
2022/09/21 16:10:36;;;;;;;4.87;1.60;;;20.80;99.90;;;;;;5058014;28;20173;-95
2022/09/21 16:23:31;;;;;;;4.90;1.60;;;20.70;99.90;;;;;;5040439;28;20256;-92
2022/09/21 16:26:41;;;;;;;5.37;1.53;;;20.30;99.90;;;;;;5041899;28;20229;-96
2022/09/21 16:29:48;;;;;;;3.47;1.60;;;19.90;1.00;;;;;;5056432;28;20220;-91
2022/09/21 16:33:10;;;;;;;4.27;1.33;;;19.70;1.00;;;;;;5039941;28;20177;-90
2022/09/21 16:39:43;;;;;;;4.30;1.53;;;19.60;1.00;;;;;;5077147;28;20222;-96
2022/09/21 16:52:47;;;;;;;;;;;;;;;;;;;;;
2022/09/21 16:55:35;;;;;;;4.43;1.67;;;21.20;33.40;;;;;;5039027;28;20190;-93
2022/09/21 16:59:05;;;;;;;5.57;1.90;;;21.20;1.00;;;;;;5035294;28;20170;-94
2022/09/21 17:05:20;;;;;;;4.73;2.33;;;20.80;4.60;;;;;;5024206;28;20391;-93
2022/09/21 17:08:37;;;;;;;5.37;2.00;;;20.60;99.90;;;;;;5074224;28;20192;-92
2022/09/21 17:15:13;;;;;;;;;;;;;;;;;;;;;
2022/09/21 17:27:44;;;;;;;5.03;2.30;;;19.00;1.00;;;;;;4960003;29;20194;-92
2022/09/21 17:33:58;;;;;;;3.70;1.40;;;18.40;1.00;;;;;;5000105;28;20205;-96
2022/09/21 17:36:29;;;;;;;4.40;1.53;;;18.20;99.90;;;;;;4985041;23;20187;-94
2022/09/21 17:43:02;;;;;;;5.67;1.77;;;18.00;1.00;;;;;;4950312;28;20189;-92
2022/09/21 17:45:52;;;;;;;;;;;;;;;;;;;;;
2022/09/21 17:48:31;;;;;;;6.90;2.00;;;17.80;99.90;;;;;;5065032;28;20231;-93
2022/09/21 17:54:26;;;;;;;4.53;2.00;;;17.70;99.90;;;;;;5053762;28;20187;-92
2022/09/21 17:57:44;;;;;;;4.20;2.37;;;17.50;99.90;;;;;;5043743;28;20187;-93
2022/09/21 18:01:06;;;;;;;4.50;2.60;;;17.80;99.90;;;;;;5041191;28;20223;-96
2022/09/21 18:04:14;;;;;;;4.20;2.30;;;17.80;99.90;;;;;;5011847;28;20235;-93
2022/09/21 18:06:50;;;;;;;6.83;2.60;;;17.70;99.90;;;;;;4986430;28;20218;-94
2022/09/21 18:09:27;;;;;;;7.03;3.17;;;17.70;99.90;;;;;;5038326;28;20194;-95
2022/09/21 18:12:05;;;;;;;8.50;4.67;;;17.60;99.90;;;;;;5002085;28;20186;-96
2022/09/21 18:15:26;;;;;;;8.93;4.17;;;17.40;99.90;;;;;;5049414;28;20205;-93
2022/09/21 18:18:14;;;;;;;8.13;4.20;;;17.30;99.90;;;;;;5048322;28;20199;-94
2022/09/21 18:21:01;;;;;;;9.03;3.70;;;17.10;99.90;;;;;;5067621;28;20227;-96
2022/09/21 18:24:36;;;;;;;7.97;3.07;;;17.10;1.00;;;;;;5040635;28;20196;-94
2022/09/21 18:27:14;;;;;;;10.30;3.47;;;16.90;1.00;;;;;;5052786;28;20236;-91
2022/09/21 18:29:40;;;;;;;8.43;3.27;;;16.90;1.00;;;;;;5038207;28;20186;-91
2022/09/21 18:33:00;;;;;;;8.57;3.33;;;16.80;1.00;;;;;;5053409;28;20239;-94
2022/09/21 18:35:47;;;;;;;7.60;3.60;;;16.70;1.00;;;;;;5026809;28;20206;-92
2022/09/21 18:38:39;;;;;;;11.97;3.27;;;16.70;1.00;;;;;;5055768;28;20193;-92
2022/09/21 18:41:32;;;;;;;7.10;3.30;;;16.70;1.00;;;;;;5026244;28;20173;-96
2022/09/21 18:44:35;;;;;;;7.67;3.97;;;16.60;1.00;;;;;;4981816;28;20203;-91
2022/09/21 18:48:15;;;;;;;5.80;3.00;;;16.60;1.00;;;;;;5040626;28;20187;-94
2022/09/21 18:51:32;;;;;;;7.37;3.90;;;16.60;1.00;;;;;;5030719;28;20193;-90
2022/09/21 18:54:26;;;;;;;8.90;4.57;;;16.50;1.00;;;;;;5014135;28;20179;-95
2022/09/21 18:56:52;;;;;;;10.70;5.43;;;16.50;1.00;;;;;;4996634;28;20181;-96
2022/09/21 18:59:20;;;;;;;9.90;3.90;;;16.60;1.00;;;;;;5021772;28;20173;-93